METAR Data
IDs: Format: Raw Decoded Include TAF

Data at: 0827 UTC 03 Aug 2021

KO69 030815Z AUTO 31004KT 9SM 13/12 A3005 RMK A01
KO69 030755Z AUTO 29007KT 6SM BR 13/12 A3006 RMK A01
KO69 030735Z AUTO 28008KT 9SM 13/12 A3006 RMK A01
KO69 030715Z AUTO VRB06KT 9SM 13/12 A3006 RMK A01
KO69 030655Z AUTO VRB04KT 7SM 13/12 A3006 RMK A01
KO69 030635Z AUTO VRB05G11KT 6SM BR 13/12 A3005 RMK A01
KO69 030615Z AUTO 32006KT 2 1/2SM BR 13/12 A3006 RMK A01
KO69 030555Z AUTO 28005KT 9SM 13/12 A3006 RMK A01
KO69 030535Z AUTO VRB03KT 10SM 13/12 A3006 RMK A01
KO69 030510Z AUTO 00000KT 10SM 13/12 A3006 RMK A01
KO69 030455Z AUTO 00000KT 10SM 13/12 A3006 RMK A01
KO69 030435Z AUTO 29005KT 10SM 14/12 A3006 RMK A01
KO69 030415Z AUTO 29006KT 9SM 14/12 A3005 RMK A01
KO69 030355Z AUTO 30006KT 10SM 14/12 A3005 RMK A01
KO69 030335Z AUTO 30005G13KT 10SM 15/12 A3005 RMK A01
KO69 030315Z AUTO 27011KT 10SM 15/12 A3005 RMK A01
KO69 030255Z AUTO 28013KT 10SM 16/12 A3005 RMK A01
KO69 030235Z AUTO 29008G15KT 10SM 17/12 A3004 RMK A01
KO69 030215Z AUTO VRB06G15KT 10SM 18/11 A3004 RMK A01
KO69 030155Z AUTO 29011G17KT 10SM 19/11 A3004 RMK A01
KO69 030135Z AUTO 28011KT 10SM 21/11 A3005 RMK A01
KO69 030115Z AUTO 29009G15KT 10SM 21/11 A3005 RMK A01
KO69 030055Z AUTO 28011KT 10SM 22/11 A3005 RMK A01
KO69 030035Z AUTO 30008G14KT 10SM 20/12 A3005 RMK A01
KO69 030015Z AUTO 29011KT 10SM 20/11 A3006 RMK A01
KO69 022355Z AUTO 28010G15KT 10SM 21/12 A3006 RMK A01
KO69 022335Z AUTO 27014KT 10SM 22/11 A3006 RMK A01
KO69 022315Z AUTO 27014KT 10SM 24/11 A3006 RMK A01
KO69 022255Z AUTO 28011KT 260V320 10SM 24/11 A3006 RMK A01
KO69 022235Z AUTO 27011KT 10SM 26/12 A3007 RMK A01
KO69 022215Z AUTO 28009G14KT 260V320 10SM 26/12 A3007 RMK A01
KO69 022155Z AUTO 30008G14KT 280V340 10SM 25/12 A3007 RMK A01
KO69 022135Z AUTO 27011KT 10SM 26/12 A3007 RMK A01
KO69 022115Z AUTO 27013KT 10SM 26/11 A3008 RMK A01
KO69 022055Z AUTO 27009KT 10SM 27/10 A3008 RMK A01
KO69 022035Z AUTO 27009KT 10SM 27/11 A3009 RMK A01
KO69 022015Z AUTO 26008KT 230V290 10SM 27/09 A3009 RMK A01
KO69 021955Z AUTO VRB04KT 10SM 25/10 A3010 RMK A01
KO69 021935Z AUTO 00000G10KT 10SM 24/10 A3010 RMK A01
KO69 021915Z AUTO 32005KT 10SM 24/11 A3010 RMK A01
KO69 021855Z AUTO VRB04G11KT 10SM 23/11 A3011 RMK A01
KO69 021835Z AUTO 00000KT 10SM 22/11 A3011 RMK A01
KO69 021815Z AUTO VRB04KT 10SM 21/11 A3012 RMK A01
KO69 021755Z AUTO 26005KT 10SM 20/11 A3012 RMK A01
KO69 021735Z AUTO 32004KT 10SM 19/12 A3012 RMK A01
KO69 021715Z AUTO VRB05G10KT 10SM 19/11 A3013 RMK A01
KO69 021655Z AUTO 33005KT 10SM 18/12 A3013 RMK A01
KO69 021635Z AUTO VRB04KT 10SM 18/11 A3013 RMK A01
KO69 021615Z AUTO VRB03KT 10SM 17/11 A3014 RMK A01
KO69 021555Z AUTO VRB05KT 10SM 16/11 A3014 RMK A01
KO69 021535Z AUTO VRB06KT 10SM 16/11 A3014 RMK A01
KO69 021515Z AUTO VRB04KT 10SM 16/11 A3014 RMK A01
KO69 021455Z AUTO VRB04KT 10SM 15/11 A3013 RMK A01
KO69 021435Z AUTO 32005KT 10SM 15/11 A3013 RMK A01
KO69 021415Z AUTO VRB04KT 10SM 15/11 A3012 RMK A01
KO69 021355Z AUTO VRB05KT 10SM 15/11 A3012 RMK A01
KO69 021335Z AUTO 00000KT 10SM 15/11 A3012 RMK A01
KO69 021315Z AUTO 30004KT 10SM 14/12 A3011 RMK A01
KO69 021255Z AUTO 29004KT 10SM 14/12 A3011 RMK A01
KO69 021235Z AUTO 00000KT 10SM 14/11 A3010 RMK A01
KO69 021215Z AUTO VRB04KT 10SM 14/11 A3010 RMK A01
KO69 021155Z AUTO 27004KT 10SM 13/11 A3009 RMK A01
KO69 021135Z AUTO 33003KT 10SM 13/11 A3009 RMK A01
KO69 021115Z AUTO 00000KT 10SM 12/11 A3009 RMK A01
KO69 021055Z AUTO 00000KT 10SM 12/11 A3009 RMK A01
KO69 021035Z AUTO 33004KT 10SM 12/11 A3009 RMK A01
KO69 021015Z AUTO 33004KT 10SM 12/11 A3009 RMK A01
KO69 020955Z AUTO 33004KT 10SM 12/11 A3009 RMK A01
KO69 020935Z AUTO 33004KT 10SM 13/11 A3009 RMK A01
KO69 020915Z AUTO 34004KT 10SM 13/11 A3010 RMK A01
KO69 020855Z AUTO 33003KT 10SM 13/11 A3010 RMK A01
KO69 020835Z AUTO 34003KT 10SM 14/11 A3010 RMK A01
KO69 020815Z AUTO 33004KT 10SM 14/11 A3011 RMK A01
KO69 020755Z AUTO 34005KT 10SM 14/12 A3011 RMK A01
KO69 020735Z AUTO 34005KT 10SM 14/12 A3011 RMK A01
KO69 020715Z AUTO 33004KT 6SM BR 14/12 A3011 RMK A01
KO69 020655Z AUTO 00000KT 6SM BR 14/12 A3011 RMK A01
KO69 020635Z AUTO 33005KT 6SM BR 14/12 A3011 RMK A01
KO69 020615Z AUTO 33005KT 10SM 14/11 A3010 RMK A01
KO69 020555Z AUTO 33004KT 10SM 14/12 A3010 RMK A01
KO69 020535Z AUTO 00000KT 10SM 14/12 A3010 RMK A01
KO69 020515Z AUTO 32004KT 10SM 15/12 A3010 RMK A01
KO69 020455Z AUTO 32004KT 10SM 15/12 A3010 RMK A01
KO69 020435Z AUTO 32004KT 10SM 15/12 A3009 RMK A01
KO69 020415Z AUTO 32003KT 10SM 15/12 A3009 RMK A01
KO69 020355Z AUTO VRB05G10KT 10SM 16/12 A3008 RMK A01
KO69 020335Z AUTO VRB06KT 10SM 16/12 A3008 RMK A01
KO69 020315Z AUTO 28008KT 10SM 17/12 A3008 RMK A01
KO69 020255Z AUTO 29010KT 10SM 18/12 A3007 RMK A01
KO69 020235Z AUTO 29007KT 270V340 10SM 19/12 A3007 RMK A01
KO69 020215Z AUTO 29009KT 10SM 20/12 A3006 RMK A01
KO69 020155Z AUTO VRB05G11KT 10SM 21/13 A3005 RMK A01
KO69 020135Z AUTO 30007G12KT 10SM 21/13 A3006 RMK A01
KO69 020115Z AUTO VRB06G12KT 10SM 20/13 A3006 RMK A01
KO69 020055Z AUTO 29009G15KT 280V340 10SM 22/13 A3006 RMK A01
KO69 020035Z AUTO 32008G14KT 10SM 22/13 A3006 RMK A01
KO69 020015Z AUTO 30010G15KT 280V360 10SM 21/12 A3005 RMK A01
KO69 012355Z AUTO 30009KT 10SM 23/13 A3005 RMK A01
KO69 012335Z AUTO 28010G15KT 10SM 24/13 A3005 RMK A01
KO69 012315Z AUTO 28009G14KT 260V320 10SM 24/13 A3006 RMK A01
KO69 012255Z AUTO 30009G15KT 10SM 24/13 A3006 RMK A01
KO69 012235Z AUTO 30007G16KT 10SM 25/13 A3006 RMK A01
KO69 012215Z AUTO VRB05G15KT 10SM 24/13 A3006 RMK A01
KO69 012155Z AUTO VRB06G14KT 250V330 10SM 24/13 A3006 RMK A01
KO69 012135Z AUTO 28011KT 10SM 25/13 A3006 RMK A01
KO69 012115Z AUTO VRB06G13KT 10SM 25/13 A3006 RMK A01
KO69 012055Z AUTO 27010G15KT 10SM 25/13 A3006 RMK A01
KO69 012035Z AUTO 29008G14KT 270V330 10SM 25/12 A3006 RMK A01